Current Conditions

Updated: 29-Jul-2015 08:17 AM  
Summary / Temperature Wind Rain






Feels like: 80°F

1-hour difference
8.9°F 8.9°F warmer than last hour.

24-hour difference
5.9°F5.9°F warmer than yesterday at this time.

  Today Yesterday
High: 79.7°F
8:16 AM
102.7°F
4:55 PM
Low: 67.7°F
6:27 AM
65.7°F
6:22 AM
Calm WSW
0.0
Gust:  0.0 mph
0 Beaufort - Calm

Today: 0.0 - 12:02 PM
Month: 10.4 mph - Jul 8
Rain Today: 0.00 in
Current Rate (/hr): 0.00 in
Max Rate (/hr):
Rain Yesterday: 0.00 in
Storm Rain: 0.00 in
This Month: 0.09 in
Season Total: 0.09 in
Last Rain Event: 8 days ago
Humidity / Barometer Sun / Moon
Humidity: 47 Decreased 20.0% in the last hour.
Dew Point: 57.7°F Decreased 1.5°F in the last hour.
Barometer: 29.842 inHg  
Baro Trend: Steady
Sunrise: 6:00 AM
Sunset: 8:04 PM
Moonrise: 5:46 PM
Moonset: 4:14 AM
Sky Conditions UV Index
Sky: Clear
Visibility: 10 miles
Clouds: None
KPTV - 12:15 AM PDT
Current: 0.0  None 
Saturday: 9.8  Very High 
Sunday: 9.3  Very High 
Air Quality Fire Danger
  Temporarily unavailable  
Current: 22  Low 

Local Alerts Local Forecast
Local NWS Alerts
Tonight

Partly
Cloudy
Low 72
Sat

Partly
Cloudy
High 102
Sat night

Partly
Cloudy
Low 68
Sun

Partly
Cloudy
High 97
Sun night

Partly
Cloudy
Low 66
Mon

Partly
Cloudy
High 97
Mon night

Partly
Cloudy
Low 64

Local Radar Local Satellite Neighborhood Cam Sky Cam
Local Radar Local Satellite Neighborhood Cam Sky Cam


Nearby Personal Stations

Weather Underground PWS KCAPORTE5 Weather Underground PWS KCAPORTE8

Nearby METAR / Airport Stations

KPTV - Porterville, California, USA
Distance from station: SSW 4mi, 7km
Updated: Sat, 01-Aug-2015 12:35am PDT
Clear
Clear
 Wind from S
Wind: S 6 mph , 9 km/h
Temperature: 81°F , 27°C
Dew Point: 54°F , 12°C
Humidity: 39%
Barometer: 29.93 inHg , 1013.5 hPa
Clouds: Clear
Visibility: 10 miles , 16 km
2015/08/01 07:35 KPTV 010735Z AUTO 17005KT 10SM CLR 27/12 A2993 RMK AO1
KVIS - Visalia, California, USA
Distance from station: NW 27mi, 43km
Updated: Sat, 01-Aug-2015 12:35am PDT
Clear
Clear
 Wind from W
Wind: W 3 mph , 6 km/h
Temperature: 79°F , 26°C
Dew Point: 63°F , 17°C
Humidity: 58%
Barometer: 29.88 inHg , 1011.9 hPa
Clouds: Clear
Visibility: 10 miles , 16 km
2015/08/01 07:35 KVIS 010735Z AUTO 27003KT 10SM CLR 26/17 A2988 RMK AO1

Metar display script from Saratoga-Weather.org



Visitor Map